TimeEDT,TemperatureF,Dew PointF,Humidity,Sea Level PressureIn,VisibilityMPH,Wind Direction,Wind SpeedMPH,Gust SpeedMPH,PrecipitationIn,Events,Conditions,WindDirDegrees,DateUTC
12:15 AM,78.8,53.6,42,29.84,10.0,SSW,5.8,-,N/A,,Clear,210,2013-04-11 04:15:00
12:35 AM,78.8,53.6,42,29.84,10.0,SSW,4.6,-,N/A,,Clear,200,2013-04-11 04:35:00
12:55 AM,73.4,55.4,53,29.84,10.0,Calm,Calm,-,N/A,,Clear,0,2013-04-11 04:55:00
1:15 AM,75.2,55.4,50,29.88,10.0,North,20.7,26.5,N/A,,Clear,350,2013-04-11 05:15:00
1:35 AM,73.4,55.4,53,29.87,10.0,North,8.1,-,N/A,,Clear,10,2013-04-11 05:35:00
1:55 AM,73.4,55.4,53,29.87,10.0,North,10.4,-,N/A,,Clear,360,2013-04-11 05:55:00
2:15 AM,71.6,55.4,57,29.87,10.0,North,8.1,-,N/A,,Clear,360,2013-04-11 06:15:00
2:35 AM,69.8,55.4,60,29.87,10.0,NNW,4.6,-,N/A,,Clear,340,2013-04-11 06:35:00
2:55 AM,66.2,55.4,68,29.87,10.0,Calm,Calm,-,N/A,,Clear,0,2013-04-11 06:55:00
3:15 AM,62.6,55.4,77,29.86,10.0,Calm,Calm,-,N/A,,Clear,0,2013-04-11 07:15:00
3:35 AM,62.6,55.4,77,29.86,10.0,Calm,Calm,-,N/A,,Clear,0,2013-04-11 07:35:00
3:55 AM,60.8,55.4,82,29.86,10.0,Calm,Calm,-,N/A,,Clear,0,2013-04-11 07:55:00
4:15 AM,59.0,55.4,88,29.85,10.0,Calm,Calm,-,N/A,,Clear,0,2013-04-11 08:15:00
4:35 AM,57.2,55.4,94,29.85,10.0,Calm,Calm,-,N/A,,Clear,0,2013-04-11 08:35:00
4:55 AM,57.2,55.4,94,29.86,10.0,Calm,Calm,-,N/A,,Clear,0,2013-04-11 08:55:00
5:15 AM,57.2,55.4,94,29.86,10.0,Calm,Calm,-,N/A,,Clear,0,2013-04-11 09:15:00
5:35 AM,59.0,55.4,88,29.86,10.0,Calm,Calm,-,N/A,,Clear,0,2013-04-11 09:35:00
5:55 AM,57.2,55.4,94,29.87,10.0,Calm,Calm,-,N/A,,Clear,0,2013-04-11 09:55:00
6:15 AM,57.2,55.4,94,29.87,10.0,Calm,Calm,-,N/A,,Clear,0,2013-04-11 10:15:00
6:35 AM,55.4,55.4,100,29.88,10.0,Calm,Calm,-,N/A,,Clear,0,2013-04-11 10:35:00
6:55 AM,55.4,53.6,94,29.88,10.0,Calm,Calm,-,N/A,,Clear,0,2013-04-11 10:55:00
7:15 AM,55.4,53.6,94,29.88,10.0,Calm,Calm,-,N/A,,Clear,0,2013-04-11 11:15:00
10:45 AM,75.2,59.0,57,29.88,10.0,Calm,Calm,-,N/A,,Clear,0,2013-04-11 14:45:00
11:45 AM,78.8,59.0,51,29.86,10.0,Variable,4.6,-,N/A,,Clear,0,2013-04-11 15:45:00
12:50 PM,82.4,57.2,42,29.83,10.0,SSE,5.8,-,N/A,,Clear,150,2013-04-11 16:50:00
2:45 PM,87.8,57.2,35,29.77,10.0,South,6.9,-,N/A,,Clear,190,2013-04-11 18:45:00
3:45 PM,87.8,55.4,33,29.74,10.0,South,6.9,-,N/A,,Clear,190,2013-04-11 19:45:00
4:45 PM,84.2,53.6,35,29.73,10.0,South,11.5,-,N/A,,Clear,180,2013-04-11 20:45:00
6:15 PM,82.4,51.8,35,29.73,10.0,South,11.5,-,N/A,,Clear,170,2013-04-11 22:15:00
6:35 PM,82.4,51.8,35,29.73,10.0,South,6.9,-,N/A,,Clear,180,2013-04-11 22:35:00
6:55 PM,80.6,53.6,39,29.73,10.0,South,5.8,-,N/A,,Clear,170,2013-04-11 22:55:00
7:15 PM,80.6,53.6,39,29.73,10.0,South,9.2,-,N/A,,Clear,170,2013-04-11 23:15:00
7:35 PM,80.6,53.6,39,29.73,10.0,SSW,9.2,-,N/A,,Clear,200,2013-04-11 23:35:00
7:55 PM,78.8,53.6,42,29.74,10.0,South,8.1,-,N/A,,Clear,190,2013-04-11 23:55:00
8:15 PM,77.0,53.6,44,29.74,10.0,SSE,6.9,-,N/A,,Clear,160,2013-04-12 00:15:00
8:35 PM,77.0,55.4,47,29.75,10.0,South,8.1,-,N/A,,Clear,170,2013-04-12 00:35:00
8:55 PM,77.0,55.4,47,29.76,10.0,South,10.4,-,N/A,,Clear,170,2013-04-12 00:55:00
9:15 PM,75.2,57.2,53,29.77,10.0,SE,8.1,-,N/A,,Clear,140,2013-04-12 01:15:00
9:35 PM,69.8,59.0,68,29.77,10.0,ENE,9.2,16.1,N/A,,Clear,70,2013-04-12 01:35:00
9:55 PM,66.2,57.2,73,29.78,10.0,East,12.7,19.6,N/A,,Clear,90,2013-04-12 01:55:00
10:15 PM,64.4,55.4,73,29.78,10.0,East,5.8,16.1,N/A,,Clear,90,2013-04-12 02:15:00
10:35 PM,62.6,55.4,77,29.79,10.0,East,4.6,-,N/A,,Clear,100,2013-04-12 02:35:00
10:55 PM,60.8,55.4,82,29.78,10.0,East,6.9,-,N/A,,Clear,90,2013-04-12 02:55:00
11:15 PM,60.8,55.4,82,29.79,10.0,East,4.6,-,N/A,,Clear,80,2013-04-12 03:15:00
11:35 PM,60.8,55.4,82,29.80,10.0,East,9.2,-,N/A,,Mostly Cloudy,80,2013-04-12 03:35:00
11:55 PM,60.8,55.4,82,29.80,10.0,East,8.1,-,N/A,,Overcast,80,2013-04-12 03:55:00